Time;durP1;ratioP1;P1;durP2;ratioP2;P2;SDS_P1;SDS_P2;PMS_P1;PMS_P2;Temp;Humidity;BMP_temperature;BMP_pressure;BME280_temperature;BME280_humidity;BME280_pressure;Samples;Min_cycle;Max_cycle;Signal;HPM_P1;HPM_P2
2023/06/22 00:02:18;;;;;;;8.93;7.20;;;22.90;71.80;;;;;;5068154;28;20483;-67
2023/06/22 00:04:47;;;;;;;8.27;6.95;;;22.90;72.00;;;;;;5066746;28;20052;-67
2023/06/22 00:07:13;;;;;;;9.70;7.50;;;22.80;72.30;;;;;;5069344;28;20074;-67
2023/06/22 00:09:40;;;;;;;8.25;7.35;;;22.90;72.10;;;;;;5069162;28;20064;-68
2023/06/22 00:12:08;;;;;;;8.93;7.70;;;22.90;72.10;;;;;;5066249;28;20090;-68
2023/06/22 00:14:35;;;;;;;8.63;7.30;;;22.80;72.30;;;;;;5072234;28;20060;-68
2023/06/22 00:17:02;;;;;;;7.63;6.82;;;22.80;72.40;;;;;;5071765;28;20037;-68
2023/06/22 00:19:29;;;;;;;9.77;7.40;;;22.70;72.60;;;;;;5070419;28;20119;-67
2023/06/22 00:22:00;;;;;;;7.60;6.80;;;22.70;72.70;;;;;;5068202;28;20434;-67
2023/06/22 00:24:27;;;;;;;9.02;7.85;;;22.70;72.60;;;;;;5071792;28;20072;-67
2023/06/22 00:26:53;;;;;;;8.52;7.20;;;22.70;73.00;;;;;;5072503;28;20037;-67
2023/06/22 00:29:20;;;;;;;8.50;7.47;;;22.60;72.80;;;;;;5072711;28;20048;-67
2023/06/22 00:31:47;;;;;;;10.13;7.50;;;22.60;72.90;;;;;;5071643;28;20052;-67
2023/06/22 00:34:15;;;;;;;9.07;7.68;;;22.60;72.50;;;;;;5071163;28;20036;-67
2023/06/22 00:36:42;;;;;;;8.57;7.68;;;22.60;72.10;;;;;;5069882;28;20675;-67
2023/06/22 00:39:10;;;;;;;11.75;8.60;;;22.70;72.00;;;;;;5072419;28;20097;-67
2023/06/22 00:41:37;;;;;;;9.68;8.20;;;22.70;71.90;;;;;;5072363;28;20415;-67
2023/06/22 00:44:06;;;;;;;9.38;8.20;;;22.70;72.20;;;;;;5070172;28;20044;-67
2023/06/22 00:46:33;;;;;;;10.23;8.40;;;22.60;72.20;;;;;;5061539;28;20036;-67
2023/06/22 00:49:00;;;;;;;12.07;9.18;;;22.60;72.20;;;;;;5069974;28;20052;-67
2023/06/22 00:51:29;;;;;;;9.43;8.50;;;22.60;72.40;;;;;;5071290;28;20044;-67
2023/06/22 00:53:55;;;;;;;9.90;8.13;;;22.60;72.30;;;;;;5070710;28;20068;-67
2023/06/22 00:56:25;;;;;;;11.52;9.15;;;22.60;72.30;;;;;;5068811;28;20491;-66
2023/06/22 00:58:53;;;;;;;9.35;8.15;;;22.60;72.50;;;;;;5071496;28;20517;-67
2023/06/22 01:01:23;;;;;;;9.00;7.88;;;22.50;73.00;;;;;;5071554;28;20040;-67
2023/06/22 01:03:51;;;;;;;9.50;7.93;;;22.50;73.20;;;;;;5070988;28;20503;-67
2023/06/22 01:06:26;;;;;;;9.35;8.35;;;22.40;73.20;;;;;;5069651;28;20080;-66
2023/06/22 01:09:05;;;;;;;8.77;7.88;;;22.50;73.10;;;;;;5061465;28;20536;-67
2023/06/22 01:11:39;;;;;;;9.25;7.78;;;22.40;73.40;;;;;;5071899;28;20135;-67
2023/06/22 01:14:11;;;;;;;8.88;7.78;;;22.50;73.40;;;;;;5070428;28;20048;-67
2023/06/22 01:16:43;;;;;;;9.13;8.23;;;22.40;73.40;;;;;;5073427;28;20067;-66
2023/06/22 01:19:22;;;;;;;9.98;8.20;;;22.40;73.40;;;;;;5071307;28;20056;-67
2023/06/22 01:21:52;;;;;;;9.27;7.68;;;22.40;73.60;;;;;;5074018;28;20494;-67
2023/06/22 01:24:24;;;;;;;;;;;22.30;74.00;;;;;;5060346;28;20059;-66
2023/06/22 01:27:01;;;;;;;8.65;7.75;;;22.20;74.20;;;;;;5064726;28;19927;-67
2023/06/22 01:29:31;;;;;;;9.45;8.45;;;22.20;74.20;;;;;;5057490;28;20052;-67
2023/06/22 01:32:00;;;;;;;10.60;8.70;;;22.20;74.30;;;;;;5066602;28;20424;-66
2023/06/22 01:34:31;;;;;;;9.40;8.10;;;22.20;74.40;;;;;;5071510;28;20048;-67
2023/06/22 01:36:58;;;;;;;;;;;22.20;74.30;;;;;;5069366;28;20123;-67
2023/06/22 01:39:27;;;;;;;10.30;8.43;;;22.30;74.20;;;;;;5070669;28;19924;-67
2023/06/22 01:41:55;;;;;;;9.45;8.45;;;22.20;74.30;;;;;;5071408;28;20446;-67
2023/06/22 01:44:23;;;;;;;9.57;8.57;;;22.10;74.60;;;;;;5071260;28;20049;-67
2023/06/22 01:46:53;;;;;;;9.15;8.00;;;22.10;74.80;;;;;;5057563;28;20103;-67
2023/06/22 01:49:22;;;;;;;11.23;8.25;;;22.20;74.70;;;;;;5066823;28;20068;-67
2023/06/22 01:51:49;;;;;;;9.85;8.85;;;22.20;74.70;;;;;;5069788;28;20041;-67
2023/06/22 01:54:16;;;;;;;10.38;9.13;;;22.20;74.70;;;;;;5068458;28;20083;-68
2023/06/22 01:56:43;;;;;;;9.88;8.88;;;22.10;74.90;;;;;;5069361;28;21122;-68
2023/06/22 01:59:16;;;;;;;9.73;8.68;;;22.10;75.20;;;;;;5070468;28;20048;-67
2023/06/22 02:01:50;;;;;;;9.45;8.45;;;22.10;75.40;;;;;;5057855;28;20044;-67
2023/06/22 02:04:22;;;;;;;10.05;8.98;;;22.10;75.40;;;;;;5068922;28;20055;-66
2023/06/22 02:06:56;;;;;;;10.63;7.95;;;22.20;75.00;;;;;;5067876;28;20056;-67
2023/06/22 02:09:26;;;;;;;12.80;8.73;;;22.30;74.80;;;;;;5070041;28;20048;-65
2023/06/22 02:11:57;;;;;;;9.48;8.10;;;22.30;75.00;;;;;;5068924;28;20045;-66
2023/06/22 02:14:24;;;;;;;9.60;8.60;;;22.20;75.20;;;;;;5067220;28;20563;-67
2023/06/22 02:16:52;;;;;;;9.55;8.55;;;22.20;75.80;;;;;;5073983;28;20049;-67
2023/06/22 02:19:25;;;;;;;10.48;8.90;;;22.10;76.50;;;;;;5067010;28;20053;-67
2023/06/22 02:21:53;;;;;;;10.50;9.13;;;22.10;76.90;;;;;;5065769;28;20119;-67
2023/06/22 02:24:23;;;;;;;9.68;8.68;;;22.10;77.20;;;;;;5065692;28;20043;-67
2023/06/22 02:26:50;;;;;;;10.48;9.07;;;22.10;77.30;;;;;;5070084;28;20441;-67
2023/06/22 02:29:17;;;;;;;9.90;8.48;;;22.10;77.70;;;;;;5066508;28;20407;-66
2023/06/22 02:31:44;;;;;;;11.52;8.68;;;22.20;76.60;;;;;;5071079;28;20094;-67
2023/06/22 02:34:18;;;;;;;9.50;8.55;;;22.20;76.70;;;;;;5070703;28;20052;-66
2023/06/22 02:36:50;;;;;;;9.77;8.77;;;22.30;76.70;;;;;;5068970;28;20129;-66
2023/06/22 02:39:19;;;;;;;11.05;9.07;;;22.30;76.60;;;;;;5070631;28;20044;-66
2023/06/22 02:41:46;;;;;;;10.75;9.65;;;22.20;76.50;;;;;;5069880;28;20098;-67
2023/06/22 02:44:13;;;;;;;9.98;8.77;;;22.20;76.40;;;;;;5069747;28;20086;-65
2023/06/22 02:46:41;;;;;;;10.45;9.25;;;22.20;76.30;;;;;;5065009;28;20049;-67
2023/06/22 02:49:08;;;;;;;10.65;8.93;;;22.20;76.10;;;;;;5067291;28;20449;-66
2023/06/22 02:51:35;;;;;;;10.75;9.35;;;22.20;76.50;;;;;;5074284;28;20048;-66
2023/06/22 02:54:04;;;;;;;11.45;10.25;;;22.20;76.70;;;;;;5076980;28;20410;-67
2023/06/22 02:56:32;;;;;;;10.85;9.73;;;22.10;76.70;;;;;;5067476;28;20048;-66
2023/06/22 02:59:01;;;;;;;10.68;9.60;;;22.10;77.20;;;;;;5069213;28;20479;-68
2023/06/22 03:01:37;;;;;;;10.93;9.82;;;22.00;77.70;;;;;;5056520;28;20084;-67
2023/06/22 03:04:05;;;;;;;10.63;9.48;;;22.00;78.00;;;;;;5067948;28;20052;-67
2023/06/22 03:06:32;;;;;;;10.18;8.63;;;21.80;78.40;;;;;;5068971;28;20052;-65
2023/06/22 03:09:01;;;;;;;10.07;8.98;;;21.80;78.50;;;;;;5062849;28;20049;-68
2023/06/22 03:11:31;;;;;;;10.48;9.40;;;21.80;78.50;;;;;;5064128;28;20049;-67
2023/06/22 03:13:58;;;;;;;10.65;8.77;;;21.80;78.40;;;;;;5062910;28;20060;-67
2023/06/22 03:16:25;;;;;;;10.27;9.07;;;21.80;78.50;;;;;;5062477;28;20052;-67
2023/06/22 03:18:54;;;;;;;10.48;9.00;;;21.80;78.80;;;;;;5058801;28;20411;-68
2023/06/22 03:21:20;;;;;;;10.77;9.30;;;21.80;78.80;;;;;;5067347;28;20047;-68
2023/06/22 03:23:47;;;;;;;10.10;8.80;;;21.80;78.80;;;;;;5065297;28;20048;-69
2023/06/22 03:26:17;;;;;;;10.10;8.77;;;21.80;79.20;;;;;;5065921;28;20051;-68
2023/06/22 03:28:45;;;;;;;11.48;9.75;;;21.70;79.30;;;;;;5068757;28;20480;-68
2023/06/22 03:31:12;;;;;;;11.43;9.90;;;21.70;79.50;;;;;;5064552;28;20048;-69
2023/06/22 03:33:41;;;;;;;12.57;9.60;;;21.70;79.40;;;;;;5066932;28;20056;-68
2023/06/22 03:36:08;;;;;;;9.75;8.77;;;21.80;79.40;;;;;;5083290;28;20410;-69
2023/06/22 03:38:35;;;;;;;9.38;8.48;;;21.80;79.20;;;;;;5066463;28;20060;-68
2023/06/22 03:41:02;;;;;;;10.40;9.27;;;21.80;79.30;;;;;;5063345;28;20602;-68
2023/06/22 03:43:30;;;;;;;10.45;9.40;;;21.80;79.20;;;;;;5068006;28;20052;-68
2023/06/22 03:45:59;;;;;;;11.45;10.27;;;21.70;79.40;;;;;;5065390;28;20455;-69
2023/06/22 03:48:25;;;;;;;11.50;9.52;;;21.80;79.60;;;;;;5065445;28;20048;-69
2023/06/22 03:50:52;;;;;;;10.25;9.20;;;21.70;79.90;;;;;;5068723;28;20048;-67
2023/06/22 03:53:19;;;;;;;10.45;9.38;;;21.70;79.90;;;;;;5065821;28;20573;-69
2023/06/22 03:55:50;;;;;;;10.23;9.10;;;21.70;79.80;;;;;;5068871;28;20423;-69
2023/06/22 03:58:18;;;;;;;10.35;8.93;;;21.70;79.90;;;;;;5069557;28;20041;-67
2023/06/22 04:00:46;;;;;;;10.30;9.30;;;21.70;79.80;;;;;;5069312;28;20051;-69
2023/06/22 04:03:15;;;;;;;10.05;9.05;;;21.70;79.80;;;;;;5074471;28;20076;-69
2023/06/22 04:05:42;;;;;;;9.98;8.57;;;21.70;79.80;;;;;;5067338;28;20466;-69
2023/06/22 04:08:09;;;;;;;9.98;8.93;;;21.70;79.80;;;;;;5069413;28;20063;-68
2023/06/22 04:10:36;;;;;;;10.00;9.00;;;21.70;80.00;;;;;;5067721;28;20056;-67
2023/06/22 04:13:03;;;;;;;10.52;9.43;;;21.70;79.90;;;;;;5063944;28;20223;-69
2023/06/22 04:15:30;;;;;;;12.20;9.80;;;21.70;79.90;;;;;;5068669;28;20147;-69
2023/06/22 04:17:57;;;;;;;10.13;8.95;;;21.80;79.90;;;;;;5064935;28;20068;-70
2023/06/22 04:20:26;;;;;;;11.80;8.48;;;21.80;79.90;;;;;;5068340;28;20080;-69
2023/06/22 04:22:54;;;;;;;11.23;9.55;;;21.80;80.00;;;;;;5068209;28;20049;-69
2023/06/22 04:25:21;;;;;;;10.48;9.32;;;21.80;80.00;;;;;;5068958;28;20107;-69
2023/06/22 04:27:48;;;;;;;10.57;9.45;;;21.80;80.10;;;;;;5067688;28;20053;-69
2023/06/22 04:30:16;;;;;;;10.15;9.00;;;21.80;80.00;;;;;;5068479;28;20427;-69
2023/06/22 04:32:43;;;;;;;10.93;9.25;;;21.90;79.70;;;;;;5067639;28;20131;-69
2023/06/22 04:35:10;;;;;;;11.40;9.73;;;22.10;79.50;;;;;;5067854;28;20049;-69
2023/06/22 04:37:39;;;;;;;11.30;9.50;;;22.10;79.20;;;;;;5072088;28;20045;-69
2023/06/22 04:40:07;;;;;;;10.73;9.68;;;22.10;79.30;;;;;;5069316;28;20048;-69
2023/06/22 04:42:35;;;;;;;10.75;9.32;;;22.10;79.40;;;;;;5067699;28;20064;-69
2023/06/22 04:45:02;;;;;;;10.25;9.15;;;22.10;79.50;;;;;;5067649;28;20044;-69
2023/06/22 04:47:29;;;;;;;10.90;9.25;;;22.10;79.70;;;;;;5064111;28;20045;-69
2023/06/22 04:49:56;;;;;;;9.68;8.68;;;22.10;79.70;;;;;;5068446;28;20040;-68
2023/06/22 04:52:24;;;;;;;10.35;9.25;;;22.10;79.80;;;;;;5068773;28;20071;-68
2023/06/22 04:54:55;;;;;;;10.00;8.90;;;22.10;79.60;;;;;;5068973;28;20044;-68
2023/06/22 04:57:32;;;;;;;12.48;9.90;;;22.10;79.70;;;;;;5068684;28;20045;-68
2023/06/22 05:00:06;;;;;;;11.27;9.20;;;22.10;79.80;;;;;;5069607;28;20127;-68
2023/06/22 05:02:33;;;;;;;10.30;9.13;;;22.20;79.50;;;;;;5072276;28;20053;-68
2023/06/22 05:05:00;;;;;;;12.02;9.38;;;22.20;79.80;;;;;;5071394;28;20562;-69
2023/06/22 05:07:28;;;;;;;10.20;9.07;;;22.20;79.90;;;;;;5070975;28;20071;-69
2023/06/22 05:09:56;;;;;;;10.93;8.93;;;22.30;79.70;;;;;;5072362;28;20109;-68
2023/06/22 05:12:23;;;;;;;10.63;9.20;;;22.30;79.50;;;;;;5071686;28;20505;-69
2023/06/22 05:14:49;;;;;;;10.50;9.05;;;22.30;79.70;;;;;;5068329;28;20044;-69
2023/06/22 05:17:18;;;;;;;10.05;8.93;;;22.30;79.80;;;;;;5071887;28;20046;-68
2023/06/22 05:19:48;;;;;;;11.10;9.85;;;22.30;79.70;;;;;;5070098;28;20106;-69
2023/06/22 05:22:16;;;;;;;10.85;9.75;;;22.30;79.80;;;;;;5071325;28;20044;-69
2023/06/22 05:24:43;;;;;;;10.63;9.38;;;22.30;79.60;;;;;;5070054;28;20056;-70
2023/06/22 05:27:11;;;;;;;10.20;9.20;;;22.40;79.60;;;;;;5071943;28;20051;-70
2023/06/22 05:29:38;;;;;;;10.73;9.27;;;22.40;79.30;;;;;;5063608;28;20056;-70
2023/06/22 05:32:06;;;;;;;10.73;9.55;;;22.50;79.20;;;;;;5070869;28;20988;-69
2023/06/22 05:34:33;;;;;;;10.88;9.77;;;22.50;79.20;;;;;;5070588;28;20053;-69
2023/06/22 05:37:00;;;;;;;9.88;8.85;;;22.40;79.30;;;;;;5071032;28;20049;-69
2023/06/22 05:39:27;;;;;;;10.30;8.95;;;22.50;79.10;;;;;;5069572;28;20048;-70
2023/06/22 05:41:54;;;;;;;11.07;9.30;;;22.50;79.30;;;;;;5071407;28;20078;-68
2023/06/22 05:44:25;;;;;;;11.93;10.13;;;22.60;78.60;;;;;;5071903;28;20036;-70
2023/06/22 05:46:51;;;;;;;10.60;9.48;;;22.60;78.70;;;;;;5067700;28;20044;-69
2023/06/22 05:49:18;;;;;;;11.15;9.98;;;22.60;78.70;;;;;;5071598;28;20049;-69
2023/06/22 05:51:45;;;;;;;10.32;9.23;;;22.70;78.80;;;;;;5070143;28;20044;-69
2023/06/22 05:54:13;;;;;;;10.98;9.55;;;22.70;78.50;;;;;;5067608;28;20052;-69
2023/06/22 05:56:40;;;;;;;12.55;11.23;;;22.60;78.60;;;;;;5069383;28;20133;-69
2023/06/22 05:59:07;;;;;;;11.85;10.65;;;22.70;78.40;;;;;;5070868;28;20472;-69
2023/06/22 06:01:35;;;;;;;11.07;9.98;;;22.60;78.30;;;;;;5069841;28;20492;-70
2023/06/22 06:04:03;;;;;;;10.90;9.75;;;22.70;78.40;;;;;;5071340;28;20056;-69
2023/06/22 06:06:30;;;;;;;12.60;11.30;;;22.60;78.20;;;;;;5066231;28;20131;-69
2023/06/22 06:08:58;;;;;;;13.27;11.48;;;22.70;78.10;;;;;;5069131;28;20048;-69
2023/06/22 06:11:25;;;;;;;12.52;11.23;;;22.60;78.40;;;;;;5067338;28;20055;-69
2023/06/22 06:13:52;;;;;;;12.13;10.90;;;22.70;78.30;;;;;;5069390;28;20044;-68
2023/06/22 06:16:19;;;;;;;12.85;11.52;;;22.70;78.40;;;;;;5070784;28;20053;-69
2023/06/22 06:18:50;;;;;;;12.13;10.93;;;22.70;78.30;;;;;;5070402;28;20075;-68
2023/06/22 06:21:17;;;;;;;12.40;11.00;;;22.80;78.10;;;;;;5059682;28;20563;-67
2023/06/22 06:23:44;;;;;;;11.85;10.57;;;22.80;77.50;;;;;;5070739;28;20052;-68
2023/06/22 06:26:11;;;;;;;12.25;10.95;;;22.80;77.60;;;;;;5069886;28;20047;-68
2023/06/22 06:28:38;;;;;;;12.48;11.18;;;22.80;77.60;;;;;;5068527;28;20123;-67
2023/06/22 06:31:07;;;;;;;12.15;10.75;;;22.90;77.40;;;;;;5070037;28;20040;-69
2023/06/22 06:33:33;;;;;;;11.25;10.05;;;22.90;77.10;;;;;;5070599;28;20518;-70
2023/06/22 06:36:03;;;;;;;11.80;10.60;;;23.00;77.40;;;;;;5069610;28;20055;-68
2023/06/22 06:38:30;;;;;;;11.50;9.85;;;23.20;76.90;;;;;;5066038;28;20052;-69
2023/06/22 06:40:57;;;;;;;13.40;10.05;;;23.30;76.70;;;;;;5068543;28;20037;-70
2023/06/22 06:43:24;;;;;;;11.55;9.88;;;23.40;76.30;;;;;;5066483;28;20106;-68
2023/06/22 06:45:51;;;;;;;10.90;9.40;;;23.50;76.20;;;;;;5070373;28;20136;-68
2023/06/22 06:48:18;;;;;;;11.38;10.18;;;23.60;75.90;;;;;;5067182;28;20052;-69
2023/06/22 06:50:45;;;;;;;11.38;10.18;;;23.70;75.40;;;;;;5068136;28;21108;-69
2023/06/22 06:53:13;;;;;;;10.88;9.77;;;23.80;75.40;;;;;;5069946;28;20063;-69
2023/06/22 06:55:40;;;;;;;13.40;9.38;;;24.00;74.90;;;;;;5068468;28;20040;-68
2023/06/22 06:58:09;;;;;;;11.15;10.05;;;24.10;74.30;;;;;;5068080;28;20052;-68
2023/06/22 07:00:36;;;;;;;11.63;9.52;;;24.20;74.30;;;;;;5069742;28;20125;-69
2023/06/22 07:03:03;;;;;;;10.70;9.60;;;24.30;74.10;;;;;;5070074;28;20059;-69
2023/06/22 07:05:30;;;;;;;11.48;9.43;;;24.50;73.90;;;;;;5069773;28;20057;-69
2023/06/22 07:07:57;;;;;;;10.88;9.77;;;24.60;73.50;;;;;;5068785;28;20149;-69
2023/06/22 07:10:26;;;;;;;11.18;10.07;;;24.70;73.20;;;;;;5067147;28;20045;-70
2023/06/22 07:12:53;;;;;;;11.45;10.20;;;24.80;72.80;;;;;;5069223;28;20052;-69
2023/06/22 07:15:20;;;;;;;11.25;9.77;;;25.00;72.60;;;;;;5070163;28;20044;-70
2023/06/22 07:17:47;;;;;;;10.02;8.95;;;25.10;72.40;;;;;;5068532;28;20052;-68
2023/06/22 07:20:13;;;;;;;11.40;10.20;;;25.30;72.00;;;;;;5068626;28;20049;-69
2023/06/22 07:22:42;;;;;;;11.13;10.00;;;25.40;71.60;;;;;;5068732;28;20048;-69
2023/06/22 07:25:09;;;;;;;11.00;9.90;;;25.50;71.70;;;;;;5069551;28;20045;-69
2023/06/22 07:27:42;;;;;;;11.00;9.90;;;25.60;71.40;;;;;;5060759;28;20057;-69
2023/06/22 07:30:10;;;;;;;10.82;9.73;;;25.70;71.10;;;;;;5069586;28;20141;-69
2023/06/22 07:32:37;;;;;;;10.95;9.77;;;25.90;70.40;;;;;;5069044;28;20052;-69
2023/06/22 07:35:05;;;;;;;10.25;9.25;;;26.00;70.30;;;;;;5068049;28;20048;-70
2023/06/22 07:37:33;;;;;;;11.07;9.68;;;26.10;69.90;;;;;;5069202;28;20491;-69
2023/06/22 07:40:00;;;;;;;10.60;9.60;;;26.20;69.70;;;;;;5068315;28;20499;-69
2023/06/22 07:42:28;;;;;;;10.38;9.38;;;26.40;69.20;;;;;;5066583;28;20056;-69
2023/06/22 07:44:56;;;;;;;10.25;9.13;;;26.50;69.00;;;;;;5065074;28;20143;-69
2023/06/22 07:47:25;;;;;;;10.18;9.13;;;26.60;69.00;;;;;;5069146;28;20053;-69
2023/06/22 07:49:54;;;;;;;9.52;8.63;;;26.80;68.30;;;;;;5069230;28;20537;-69
2023/06/22 07:52:21;;;;;;;9.98;8.98;;;26.90;68.00;;;;;;5067719;28;20127;-69
2023/06/22 07:54:48;;;;;;;10.48;9.38;;;27.00;67.80;;;;;;5068864;28;20118;-70
2023/06/22 07:57:15;;;;;;;9.95;8.45;;;27.20;67.20;;;;;;5067525;28;20044;-69
2023/06/22 07:59:42;;;;;;;10.55;9.35;;;27.30;66.80;;;;;;5066993;28;20044;-70
2023/06/22 08:02:10;;;;;;;10.07;9.07;;;27.30;66.60;;;;;;5068744;28;20518;-70
2023/06/22 08:04:37;;;;;;;9.57;8.57;;;27.60;66.20;;;;;;5067634;28;20518;-70
2023/06/22 08:07:05;;;;;;;10.23;8.88;;;27.60;66.60;;;;;;5065495;28;20562;-69
2023/06/22 08:09:33;;;;;;;9.82;8.82;;;27.70;66.00;;;;;;5077052;28;20415;-69
2023/06/22 08:12:00;;;;;;;11.23;9.30;;;27.80;65.30;;;;;;5068881;28;20403;-69
2023/06/22 08:14:28;;;;;;;9.32;8.38;;;27.90;65.20;;;;;;5065470;28;20040;-70
2023/06/22 08:16:54;;;;;;;10.63;8.80;;;28.10;64.40;;;;;;5069508;28;20049;-70
2023/06/22 08:19:23;;;;;;;9.18;8.27;;;28.20;63.50;;;;;;5066231;28;20044;-69
2023/06/22 08:21:50;;;;;;;9.35;8.07;;;28.30;62.80;;;;;;5068884;28;20053;-69
2023/06/22 08:24:17;;;;;;;8.98;8.07;;;28.40;63.00;;;;;;5068445;28;20051;-68
2023/06/22 08:26:44;;;;;;;9.15;8.25;;;28.40;61.90;;;;;;5066845;28;20049;-70
2023/06/22 08:29:19;;;;;;;8.25;7.45;;;28.50;61.50;;;;;;5068732;28;20403;-69
2023/06/22 08:31:45;;;;;;;8.18;7.30;;;28.70;61.30;;;;;;5071919;28;20048;-70
2023/06/22 08:34:12;;;;;;;9.02;7.43;;;28.80;61.10;;;;;;5070407;28;20048;-69
2023/06/22 08:36:44;;;;;;;8.10;7.30;;;29.00;60.60;;;;;;5071551;28;20044;-68
2023/06/22 08:39:11;;;;;;;8.80;7.90;;;29.10;60.30;;;;;;5073439;28;20045;-69
2023/06/22 08:41:38;;;;;;;9.63;7.57;;;29.20;59.70;;;;;;5071887;28;20044;-69
2023/06/22 08:44:05;;;;;;;8.75;7.85;;;29.30;59.60;;;;;;5072413;28;20076;-69
2023/06/22 08:46:33;;;;;;;9.75;7.80;;;29.40;59.10;;;;;;5072670;28;20048;-69
2023/06/22 08:49:00;;;;;;;8.13;7.32;;;29.40;59.10;;;;;;5070394;28;20553;-69
2023/06/22 08:51:27;;;;;;;8.18;7.38;;;29.50;58.50;;;;;;5071682;28;20052;-69
2023/06/22 08:53:58;;;;;;;8.55;7.65;;;29.60;57.90;;;;;;5071840;28;20402;-69
2023/06/22 08:56:25;;;;;;;8.68;7.65;;;29.70;58.00;;;;;;5070129;28;20052;-69
2023/06/22 08:58:52;;;;;;;7.60;6.80;;;29.80;58.30;;;;;;5072298;28;20058;-71
2023/06/22 09:01:19;;;;;;;8.00;7.20;;;29.80;57.50;;;;;;5071127;28;20052;-69
2023/06/22 09:03:53;;;;;;;7.90;7.10;;;30.00;56.70;;;;;;5072159;28;20091;-69
2023/06/22 09:06:21;;;;;;;9.23;7.65;;;30.10;56.30;;;;;;5070283;28;20552;-70
2023/06/22 09:08:48;;;;;;;8.35;7.00;;;30.10;56.50;;;;;;5072334;28;20483;-68
2023/06/22 09:11:17;;;;;;;8.05;7.25;;;30.20;56.10;;;;;;5070255;28;20495;-68
2023/06/22 09:13:44;;;;;;;7.88;6.65;;;30.30;55.50;;;;;;5071859;28;20118;-70
2023/06/22 09:16:11;;;;;;;8.80;7.35;;;30.40;55.50;;;;;;5072223;28;20067;-69
2023/06/22 09:18:39;;;;;;;8.93;7.45;;;30.40;55.00;;;;;;5070458;28;20052;-69
2023/06/22 09:21:06;;;;;;;8.32;7.13;;;30.40;54.80;;;;;;5072254;28;20068;-68
2023/06/22 09:23:33;;;;;;;8.52;7.63;;;30.50;54.60;;;;;;5069720;28;20082;-68
2023/06/22 09:26:00;;;;;;;8.00;7.20;;;30.60;54.80;;;;;;5071640;28;20047;-69
2023/06/22 09:28:28;;;;;;;8.00;6.60;;;30.70;54.10;;;;;;5070730;28;20041;-69
2023/06/22 09:30:59;;;;;;;8.02;7.22;;;30.80;53.80;;;;;;5072162;28;20513;-68
2023/06/22 09:33:26;;;;;;;7.95;7.15;;;30.80;53.60;;;;;;5070455;28;20052;-68
2023/06/22 09:35:53;;;;;;;8.40;7.53;;;31.00;53.10;;;;;;5071115;28;20412;-69
2023/06/22 09:38:20;;;;;;;9.60;7.60;;;31.00;52.70;;;;;;5071743;28;20064;-68
2023/06/22 09:40:47;;;;;;;7.85;7.05;;;31.10;52.50;;;;;;5069248;28;20071;-70
2023/06/22 09:43:14;;;;;;;8.98;7.65;;;31.10;52.30;;;;;;5071560;28;20117;-68
2023/06/22 09:45:43;;;;;;;9.63;8.70;;;31.20;52.30;;;;;;5069246;28;20040;-68
2023/06/22 09:48:10;;;;;;;13.80;10.65;;;31.20;52.70;;;;;;5068244;28;20503;-70
2023/06/22 09:50:37;;;;;;;12.90;11.30;;;31.30;52.30;;;;;;5071333;28;20052;-68
2023/06/22 09:53:04;;;;;;;16.35;14.75;;;31.40;51.80;;;;;;5069972;28;20493;-68
2023/06/22 09:55:31;;;;;;;15.68;14.13;;;31.40;52.00;;;;;;5070647;28;20044;-70
2023/06/22 09:57:58;;;;;;;14.50;13.02;;;31.50;52.00;;;;;;5069840;28;20055;-69
2023/06/22 10:00:26;;;;;;;15.18;13.60;;;31.50;52.20;;;;;;5069964;28;20092;-70
2023/06/22 10:02:55;;;;;;;13.15;11.85;;;31.60;52.80;;;;;;5068565;28;20048;-69
2023/06/22 10:05:22;;;;;;;12.93;11.63;;;31.60;52.40;;;;;;5071679;28;20105;-69
2023/06/22 10:07:49;;;;;;;14.48;12.60;;;31.70;52.00;;;;;;5068334;28;20479;-68
2023/06/22 10:10:16;;;;;;;15.50;12.30;;;31.70;51.90;;;;;;5071536;28;20055;-68
2023/06/22 10:12:47;;;;;;;11.52;10.32;;;31.80;51.30;;;;;;5069581;28;20098;-68
2023/06/22 10:15:15;;;;;;;13.05;11.77;;;31.90;50.40;;;;;;5070624;28;20127;-67
2023/06/22 10:17:42;;;;;;;13.43;11.25;;;31.90;50.70;;;;;;5070213;28;20048;-68
2023/06/22 10:20:14;;;;;;;11.43;10.32;;;31.90;50.40;;;;;;5068494;28;20131;-68
2023/06/22 10:22:42;;;;;;;11.27;10.13;;;31.80;50.40;;;;;;5069979;28;20044;-69
2023/06/22 10:25:09;;;;;;;12.95;11.75;;;31.60;50.30;;;;;;5070014;28;20044;-69
2023/06/22 10:27:39;;;;;;;14.85;13.35;;;31.60;50.30;;;;;;5070957;28;20056;-68
2023/06/22 10:30:07;;;;;;;16.38;14.68;;;31.60;50.50;;;;;;5069071;28;20049;-67
2023/06/22 10:32:39;;;;;;;12.75;11.55;;;31.80;50.30;;;;;;5069577;28;20044;-67
2023/06/22 10:35:13;;;;;;;13.82;12.52;;;32.00;49.80;;;;;;5067698;28;20045;-67
2023/06/22 10:37:42;;;;;;;14.02;12.65;;;32.10;49.70;;;;;;5064323;28;20048;-67
2023/06/22 10:40:10;;;;;;;17.48;15.88;;;32.20;49.80;;;;;;5070307;28;20127;-67
2023/06/22 10:42:37;;;;;;;19.45;17.65;;;32.20;49.90;;;;;;5070444;28;20049;-68
2023/06/22 10:45:05;;;;;;;20.63;18.73;;;32.30;49.70;;;;;;5070593;28;20448;-68
2023/06/22 10:47:32;;;;;;;21.92;19.80;;;32.30;49.50;;;;;;5067612;28;20059;-67
2023/06/22 10:49:59;;;;;;;22.40;20.35;;;32.40;49.50;;;;;;5070298;28;20051;-70
2023/06/22 10:52:27;;;;;;;22.10;19.90;;;32.50;49.30;;;;;;5066753;28;20055;-68
2023/06/22 10:54:54;;;;;;;21.45;19.45;;;32.50;49.10;;;;;;5069473;28;20051;-68
2023/06/22 10:57:23;;;;;;;25.25;22.73;;;32.60;49.10;;;;;;5068416;28;20087;-68
2023/06/22 10:59:50;;;;;;;20.08;18.17;;;32.50;49.00;;;;;;5068932;28;20098;-67
2023/06/22 11:02:17;;;;;;;22.55;20.38;;;32.60;48.40;;;;;;5070067;28;20056;-67
2023/06/22 11:04:44;;;;;;;20.92;18.92;;;32.60;48.40;;;;;;5068203;28;20068;-69
2023/06/22 11:07:11;;;;;;;21.05;19.05;;;32.70;48.40;;;;;;5070878;28;20502;-68
2023/06/22 11:09:39;;;;;;;18.05;16.42;;;32.70;48.10;;;;;;5067823;28;20056;-68
2023/06/22 11:12:07;;;;;;;16.23;14.70;;;32.70;48.20;;;;;;5069681;28;20049;-68
2023/06/22 11:14:34;;;;;;;16.63;15.05;;;32.80;48.20;;;;;;5061118;28;20060;-68
2023/06/22 11:17:01;;;;;;;15.82;14.35;;;32.80;48.10;;;;;;5067545;28;20049;-68
2023/06/22 11:19:28;;;;;;;16.70;12.50;;;32.90;47.60;;;;;;5070094;28;20050;-67
2023/06/22 11:21:55;;;;;;;16.55;14.82;;;33.00;47.50;;;;;;5069727;28;20114;-67
2023/06/22 11:24:22;;;;;;;17.30;15.60;;;33.00;47.60;;;;;;5069412;28;20040;-68
2023/06/22 11:26:50;;;;;;;16.75;15.13;;;33.10;47.40;;;;;;5080673;28;20052;-69
2023/06/22 11:29:17;;;;;;;14.45;13.05;;;33.10;47.50;;;;;;5080072;28;20063;-69
2023/06/22 11:31:44;;;;;;;13.85;12.35;;;33.20;47.10;;;;;;5074520;28;20112;-68
2023/06/22 11:34:11;;;;;;;12.00;10.80;;;33.30;47.00;;;;;;5083327;28;20044;-68
2023/06/22 11:36:38;;;;;;;11.15;10.15;;;33.30;47.00;;;;;;5086746;28;20931;-68
2023/06/22 11:39:05;;;;;;;10.70;9.60;;;33.30;47.10;;;;;;5076929;28;20471;-68
2023/06/22 11:41:32;;;;;;;10.10;9.10;;;33.40;47.00;;;;;;5074709;28;20090;-68
2023/06/22 11:44:01;;;;;;;9.77;8.77;;;33.30;47.00;;;;;;5089674;28;20653;-68
2023/06/22 11:46:28;;;;;;;9.10;8.20;;;33.40;46.80;;;;;;5078209;28;20051;-67
2023/06/22 11:48:54;;;;;;;10.50;9.07;;;33.50;46.70;;;;;;5076805;28;20055;-69
2023/06/22 11:51:21;;;;;;;9.82;7.97;;;33.50;46.40;;;;;;5083110;28;20051;-67
2023/06/22 11:53:48;;;;;;;9.15;8.07;;;33.50;45.90;;;;;;5069601;28;20127;-68
2023/06/22 11:56:15;;;;;;;8.93;7.93;;;33.50;46.20;;;;;;5068923;28;20121;-68
2023/06/22 11:58:42;;;;;;;8.38;7.57;;;33.30;46.30;;;;;;5068316;28;20055;-68
2023/06/22 12:01:14;;;;;;;10.52;8.63;;;33.20;46.60;;;;;;5071098;28;20049;-68
2023/06/22 12:03:43;;;;;;;11.77;9.55;;;33.20;46.90;;;;;;5068307;28;20051;-68
2023/06/22 12:06:10;;;;;;;13.18;11.82;;;33.40;46.50;;;;;;5063727;28;20061;-67
2023/06/22 12:08:36;;;;;;;14.55;13.15;;;33.50;46.50;;;;;;5069293;28;20125;-68
2023/06/22 12:11:03;;;;;;;15.50;13.90;;;33.40;46.60;;;;;;5072829;28;20060;-68
2023/06/22 12:13:30;;;;;;;14.55;13.00;;;33.50;46.50;;;;;;5071727;28;20083;-67
2023/06/22 12:15:57;;;;;;;13.13;11.48;;;33.60;46.60;;;;;;5071726;28;20145;-67
2023/06/22 12:18:25;;;;;;;14.20;12.88;;;33.60;46.40;;;;;;5071055;28;20048;-68
2023/06/22 12:20:52;;;;;;;18.15;16.38;;;33.70;46.50;;;;;;5071250;28;20041;-67
2023/06/22 12:23:19;;;;;;;17.98;16.17;;;33.70;46.00;;;;;;5068004;28;20032;-67
2023/06/22 12:25:46;;;;;;;17.98;16.17;;;33.70;46.10;;;;;;5070936;28;20102;-67
2023/06/22 12:28:13;;;;;;;17.45;15.68;;;33.70;46.60;;;;;;5069966;28;20048;-68
2023/06/22 12:30:41;;;;;;;15.73;14.02;;;33.60;46.70;;;;;;5071591;28;20044;-67
2023/06/22 12:33:07;;;;;;;13.60;12.23;;;33.60;46.50;;;;;;5073120;28;20051;-67
2023/06/22 12:35:36;;;;;;;12.90;11.57;;;33.50;46.50;;;;;;5069872;28;20446;-67
2023/06/22 12:38:06;;;;;;;13.63;11.82;;;33.50;46.80;;;;;;5071912;28;20063;-67
2023/06/22 12:40:33;;;;;;;12.57;11.25;;;33.50;47.00;;;;;;5072066;28;20056;-68
2023/06/22 12:43:01;;;;;;;11.75;10.65;;;33.50;46.90;;;;;;5064207;28;20590;-68